Anaconda, MT

4:22 AM MDT on October 21, 2014 (GMT -0600)
goosetown 2 | Change Station
CLOSE
Current Station
Personal Weather Station
Location: Anaconda, MT
Elevation: 5240 ft
Nearby Weather Stations
Active Advisory: Winter Weather Advisory Active Notice: Record Report

Elev 5240 ft 46.13 °N, 112.94 °W | Updated 44 seconds ago

Mostly Cloudy
Mostly Cloudy
48.1 °F
Feels Like 48 °F
N
0.0
Wind Variable Wind from WSW
Gusts 17.0 mph

Today
High -- | Low -- °F
--% Chance of Precip.
Yesterday
High -- | Low -- °F
Precip. -- in
7:57 AM 6:35 PM
Waning Crescent, 6% visible
Pressure 29.66 in
Visibility 10.0 miles
Clouds Mostly Cloudy 10000 ft
Windchill 48 °F
Dew Point 34 °F
Humidity 57%
Rainfall 0.00 in
Snow Depth Not available.
UV 0 out of 12
Pollen 2.20 out of 12
Air Quality Not available.
Flu Activity No Activity
METAR KBTM 210953Z AUTO 22003KT 10SM BKN100 08/01 A2980 RMK AO2 SLP044 T00830006

More Conditions Fewer Conditions

Pressure 29.66 in
Visibility 10.0 miles
Clouds Mostly Cloudy 10000 ft
Windchill 48 °F
Dew Point 34 °F
Humidity 57%
Rainfall 0.00 in
Snow Depth Not available.
UV 0 out of 12
Pollen 2.20 out of 12
Air Quality Not available.
Flu Activity No Activity
METAR KBTM 210953Z AUTO 22003KT 10SM BKN100 08/01 A2980 RMK AO2 SLP044 T00830006

More Conditions Fewer Conditions

10-Day Weather Forecast

Almanac

Astronomy

Oct. 21, 2014 Rise Set
Actual Time 7:57 AM MDT 6:35 PM MDT
Civil Twilight 7:27 AM MDT 7:05 PM MDT
Nautical Twilight 6:52 AM MDT 7:40 PM MDT
Astronomical Twilight 6:17 AM MDT 8:15 PM MDT
Moon 5:38 AM MDT 5:36 PM MDT
Length of Visible Light 11h 38m
Length of Day
10h 37m
Tomorrow will be 3m 5s shorter.
Waning Crescent, 6% of the Moon is Illuminated
Today
Waning Crescent
Oct 23
New
Oct 30
First Quarter
Nov 6
Full
Nov 14
Last Quarter

Today's Extremes

State Highs State Lows

Community

WunderPhotos

Upload Photos

1,763,625 photos uploaded!

Nearby

Snow Depth

Station Depth Elevation
Black Pine 1 in 7210 ft
Combination 0 in 5600 ft
Skalkaho Summit 0 in 7250 ft
Daly Creek 0 in 5780 ft
Rocker Peak 0 in 8000 ft

Earthquake Activity

City Distance Mag. Time & Date
No recent earthquake activity has been reported nearby.
Minimum magnitude displayed is 2.5.

Coastal Water Temperatures

Place Temperature
No Stations Reporting

Nearby Weather Stations